Terminal Aerodrome Forecast
Issued by NWS

Home | Current Version | Previous Version | Text Only | Print | Product List | Glossary On
Versions: 1 2 3 4 5 6 7 8 9 10 11 12 13 14 15 16 17 18 19 20 21 22 23 24 25 26 27 28 29 30 31 32 33 34 35
000
FTUS45 KGJT 240526
TAFEGE
TAF
KEGE 240526Z 2406/2506 12010G18KT P6SM VCSH BKN150
     FM240700 22011KT P6SM BKN150
     FM241700 24009KT P6SM BKN130
     FM241900 24013G22KT P6SM BKN090
     FM242200 23015G25KT P6SM VCSH OVC060
     FM250000 22013G22KT P6SM -SHRA OVC050
      AMD LTD TO CLD VIS AND WIND TIL 241300=

USA.gov is the U.S. government's official web portal to all federal, state and local government web resources and services.